sensor_id;sensor_type;location;lat;lon;timestamp;P1;durP1;ratioP1;P2;durP2;ratioP2
44764;SDS011;30484;52.382;5.260;2022-11-20T00:00:25;49.70;;;20.52;;
44764;SDS011;30484;52.382;5.260;2022-11-20T00:02:54;43.80;;;21.33;;
44764;SDS011;30484;52.382;5.260;2022-11-20T00:05:23;47.92;;;21.33;;
44764;SDS011;30484;52.382;5.260;2022-11-20T00:07:52;51.53;;;20.58;;
44764;SDS011;30484;52.382;5.260;2022-11-20T00:10:23;46.20;;;19.75;;
44764;SDS011;30484;52.382;5.260;2022-11-20T00:12:52;42.10;;;19.63;;
44764;SDS011;30484;52.382;5.260;2022-11-20T00:15:21;44.28;;;21.00;;
44764;SDS011;30484;52.382;5.260;2022-11-20T00:17:49;49.00;;;21.10;;
44764;SDS011;30484;52.382;5.260;2022-11-20T00:20:18;42.85;;;19.15;;
44764;SDS011;30484;52.382;5.260;2022-11-20T00:22:46;51.70;;;20.80;;
44764;SDS011;30484;52.382;5.260;2022-11-20T00:25:15;42.40;;;18.65;;
44764;SDS011;30484;52.382;5.260;2022-11-20T00:27:49;43.63;;;19.08;;
44764;SDS011;30484;52.382;5.260;2022-11-20T00:30:19;48.03;;;20.88;;
44764;SDS011;30484;52.382;5.260;2022-11-20T00:32:48;45.55;;;20.00;;
44764;SDS011;30484;52.382;5.260;2022-11-20T00:35:16;43.00;;;19.27;;
44764;SDS011;30484;52.382;5.260;2022-11-20T00:37:48;42.38;;;19.05;;
44764;SDS011;30484;52.382;5.260;2022-11-20T00:40:17;44.45;;;18.15;;
44764;SDS011;30484;52.382;5.260;2022-11-20T00:42:47;47.88;;;20.52;;
44764;SDS011;30484;52.382;5.260;2022-11-20T00:45:16;44.50;;;19.77;;
44764;SDS011;30484;52.382;5.260;2022-11-20T00:47:45;46.63;;;19.58;;
44764;SDS011;30484;52.382;5.260;2022-11-20T00:50:14;47.40;;;19.90;;
44764;SDS011;30484;52.382;5.260;2022-11-20T00:52:43;49.33;;;20.17;;
44764;SDS011;30484;52.382;5.260;2022-11-20T00:55:12;43.42;;;19.70;;
44764;SDS011;30484;52.382;5.260;2022-11-20T00:57:41;44.45;;;18.58;;
44764;SDS011;30484;52.382;5.260;2022-11-20T01:00:12;53.30;;;20.00;;
44764;SDS011;30484;52.382;5.260;2022-11-20T01:02:47;44.42;;;19.13;;
44764;SDS011;30484;52.382;5.260;2022-11-20T01:05:16;47.03;;;20.60;;
44764;SDS011;30484;52.382;5.260;2022-11-20T01:07:44;45.53;;;20.50;;
44764;SDS011;30484;52.382;5.260;2022-11-20T01:10:14;39.28;;;18.27;;
44764;SDS011;30484;52.382;5.260;2022-11-20T01:12:44;42.85;;;19.45;;
44764;SDS011;30484;52.382;5.260;2022-11-20T01:15:35;47.72;;;19.33;;
44764;SDS011;30484;52.382;5.260;2022-11-20T01:18:03;41.53;;;18.85;;
44764;SDS011;30484;52.382;5.260;2022-11-20T01:20:34;44.78;;;19.23;;
44764;SDS011;30484;52.382;5.260;2022-11-20T01:23:03;47.30;;;20.60;;
44764;SDS011;30484;52.382;5.260;2022-11-20T01:25:34;46.83;;;20.38;;
44764;SDS011;30484;52.382;5.260;2022-11-20T01:28:02;46.72;;;21.05;;
44764;SDS011;30484;52.382;5.260;2022-11-20T01:30:31;45.00;;;19.33;;
44764;SDS011;30484;52.382;5.260;2022-11-20T01:33:02;42.83;;;19.02;;
44764;SDS011;30484;52.382;5.260;2022-11-20T01:35:32;47.10;;;19.90;;
44764;SDS011;30484;52.382;5.260;2022-11-20T01:38:08;41.97;;;18.83;;
44764;SDS011;30484;52.382;5.260;2022-11-20T01:40:39;44.95;;;19.58;;
44764;SDS011;30484;52.382;5.260;2022-11-20T01:43:13;44.97;;;20.13;;
44764;SDS011;30484;52.382;5.260;2022-11-20T01:45:58;41.03;;;18.33;;
44764;SDS011;30484;52.382;5.260;2022-11-20T01:48:33;40.20;;;18.50;;
44764;SDS011;30484;52.382;5.260;2022-11-20T01:51:06;43.15;;;18.98;;
44764;SDS011;30484;52.382;5.260;2022-11-20T01:53:45;42.83;;;19.33;;
44764;SDS011;30484;52.382;5.260;2022-11-20T01:56:15;46.50;;;19.88;;
44764;SDS011;30484;52.382;5.260;2022-11-20T01:58:47;41.35;;;18.48;;
44764;SDS011;30484;52.382;5.260;2022-11-20T02:01:21;46.55;;;19.13;;
44764;SDS011;30484;52.382;5.260;2022-11-20T02:03:52;41.17;;;18.23;;
44764;SDS011;30484;52.382;5.260;2022-11-20T02:06:23;36.72;;;18.27;;
44764;SDS011;30484;52.382;5.260;2022-11-20T02:08:58;43.47;;;18.40;;
44764;SDS011;30484;52.382;5.260;2022-11-20T02:11:31;38.65;;;17.27;;
44764;SDS011;30484;52.382;5.260;2022-11-20T02:14:00;38.22;;;16.67;;
44764;SDS011;30484;52.382;5.260;2022-11-20T02:16:30;35.35;;;16.63;;
44764;SDS011;30484;52.382;5.260;2022-11-20T02:19:06;39.42;;;18.15;;
44764;SDS011;30484;52.382;5.260;2022-11-20T02:21:54;36.42;;;16.50;;
44764;SDS011;30484;52.382;5.260;2022-11-20T02:24:32;40.75;;;17.50;;
44764;SDS011;30484;52.382;5.260;2022-11-20T02:27:03;39.88;;;16.70;;
44764;SDS011;30484;52.382;5.260;2022-11-20T02:29:36;40.88;;;18.50;;
44764;SDS011;30484;52.382;5.260;2022-11-20T02:32:17;41.20;;;17.02;;
44764;SDS011;30484;52.382;5.260;2022-11-20T02:34:47;37.88;;;16.98;;
44764;SDS011;30484;52.382;5.260;2022-11-20T02:37:16;36.78;;;16.58;;
44764;SDS011;30484;52.382;5.260;2022-11-20T02:39:49;37.25;;;16.77;;
44764;SDS011;30484;52.382;5.260;2022-11-20T02:42:19;40.70;;;15.85;;
44764;SDS011;30484;52.382;5.260;2022-11-20T02:44:49;45.97;;;18.88;;
44764;SDS011;30484;52.382;5.260;2022-11-20T02:47:23;41.13;;;16.80;;
44764;SDS011;30484;52.382;5.260;2022-11-20T02:49:54;41.15;;;15.65;;
44764;SDS011;30484;52.382;5.260;2022-11-20T02:52:23;38.15;;;17.00;;
44764;SDS011;30484;52.382;5.260;2022-11-20T02:54:53;39.20;;;16.60;;
44764;SDS011;30484;52.382;5.260;2022-11-20T02:57:24;39.13;;;16.73;;
44764;SDS011;30484;52.382;5.260;2022-11-20T02:59:52;37.95;;;16.83;;
44764;SDS011;30484;52.382;5.260;2022-11-20T03:02:22;39.92;;;16.10;;
44764;SDS011;30484;52.382;5.260;2022-11-20T03:04:51;40.85;;;17.38;;
44764;SDS011;30484;52.382;5.260;2022-11-20T03:07:20;39.03;;;16.80;;
44764;SDS011;30484;52.382;5.260;2022-11-20T03:09:49;41.97;;;16.70;;
44764;SDS011;30484;52.382;5.260;2022-11-20T03:12:22;40.45;;;16.85;;
44764;SDS011;30484;52.382;5.260;2022-11-20T03:14:52;40.03;;;16.88;;
44764;SDS011;30484;52.382;5.260;2022-11-20T03:17:23;36.45;;;16.83;;
44764;SDS011;30484;52.382;5.260;2022-11-20T03:19:52;37.20;;;16.60;;
44764;SDS011;30484;52.382;5.260;2022-11-20T03:22:25;36.97;;;16.88;;
44764;SDS011;30484;52.382;5.260;2022-11-20T03:24:56;39.00;;;16.20;;
44764;SDS011;30484;52.382;5.260;2022-11-20T03:27:28;40.72;;;16.65;;
44764;SDS011;30484;52.382;5.260;2022-11-20T03:32:32;33.50;;;14.95;;
44764;SDS011;30484;52.382;5.260;2022-11-20T03:35:01;33.60;;;15.77;;
44764;SDS011;30484;52.382;5.260;2022-11-20T03:37:30;37.78;;;16.15;;
44764;SDS011;30484;52.382;5.260;2022-11-20T03:40:00;40.55;;;15.85;;
44764;SDS011;30484;52.382;5.260;2022-11-20T03:42:31;38.63;;;16.13;;
44764;SDS011;30484;52.382;5.260;2022-11-20T03:45:13;36.13;;;14.88;;
44764;SDS011;30484;52.382;5.260;2022-11-20T03:47:44;35.28;;;15.38;;
44764;SDS011;30484;52.382;5.260;2022-11-20T03:50:13;38.75;;;16.45;;
44764;SDS011;30484;52.382;5.260;2022-11-20T03:52:43;33.80;;;15.95;;
44764;SDS011;30484;52.382;5.260;2022-11-20T03:55:11;37.33;;;14.95;;
44764;SDS011;30484;52.382;5.260;2022-11-20T03:57:42;35.65;;;14.80;;
44764;SDS011;30484;52.382;5.260;2022-11-20T04:00:12;37.40;;;15.80;;
44764;SDS011;30484;52.382;5.260;2022-11-20T04:02:43;33.47;;;14.38;;
44764;SDS011;30484;52.382;5.260;2022-11-20T04:05:11;42.20;;;15.30;;
44764;SDS011;30484;52.382;5.260;2022-11-20T04:07:43;33.88;;;15.60;;
44764;SDS011;30484;52.382;5.260;2022-11-20T04:10:11;35.47;;;15.30;;
44764;SDS011;30484;52.382;5.260;2022-11-20T04:12:44;35.38;;;15.57;;
44764;SDS011;30484;52.382;5.260;2022-11-20T04:15:13;34.20;;;15.98;;
44764;SDS011;30484;52.382;5.260;2022-11-20T04:17:42;34.53;;;15.38;;
44764;SDS011;30484;52.382;5.260;2022-11-20T04:20:11;37.10;;;15.15;;
44764;SDS011;30484;52.382;5.260;2022-11-20T04:22:41;37.42;;;16.17;;
44764;SDS011;30484;52.382;5.260;2022-11-20T04:25:10;36.63;;;15.82;;
44764;SDS011;30484;52.382;5.260;2022-11-20T04:27:39;37.20;;;14.65;;
44764;SDS011;30484;52.382;5.260;2022-11-20T04:30:10;37.88;;;15.45;;
44764;SDS011;30484;52.382;5.260;2022-11-20T04:32:40;37.60;;;15.82;;
44764;SDS011;30484;52.382;5.260;2022-11-20T04:35:10;33.67;;;14.63;;
44764;SDS011;30484;52.382;5.260;2022-11-20T04:37:38;34.83;;;14.68;;
44764;SDS011;30484;52.382;5.260;2022-11-20T04:40:07;37.28;;;16.27;;
44764;SDS011;30484;52.382;5.260;2022-11-20T04:42:37;35.17;;;14.02;;
44764;SDS011;30484;52.382;5.260;2022-11-20T04:45:10;39.95;;;15.07;;
44764;SDS011;30484;52.382;5.260;2022-11-20T04:47:39;37.80;;;15.90;;
44764;SDS011;30484;52.382;5.260;2022-11-20T04:50:09;33.22;;;14.75;;
44764;SDS011;30484;52.382;5.260;2022-11-20T04:52:38;39.08;;;16.35;;
44764;SDS011;30484;52.382;5.260;2022-11-20T04:55:08;34.33;;;14.68;;
44764;SDS011;30484;52.382;5.260;2022-11-20T04:57:36;39.88;;;15.32;;
44764;SDS011;30484;52.382;5.260;2022-11-20T05:00:06;36.97;;;14.13;;
44764;SDS011;30484;52.382;5.260;2022-11-20T05:02:44;34.42;;;14.82;;
44764;SDS011;30484;52.382;5.260;2022-11-20T05:05:14;29.15;;;13.57;;
44764;SDS011;30484;52.382;5.260;2022-11-20T05:07:43;36.20;;;14.55;;
44764;SDS011;30484;52.382;5.260;2022-11-20T05:10:13;33.88;;;14.25;;
44764;SDS011;30484;52.382;5.260;2022-11-20T05:12:43;34.35;;;14.82;;
44764;SDS011;30484;52.382;5.260;2022-11-20T05:15:14;34.05;;;14.82;;
44764;SDS011;30484;52.382;5.260;2022-11-20T05:17:46;34.97;;;15.35;;
44764;SDS011;30484;52.382;5.260;2022-11-20T05:20:16;33.13;;;14.75;;
44764;SDS011;30484;52.382;5.260;2022-11-20T05:22:48;32.85;;;15.43;;
44764;SDS011;30484;52.382;5.260;2022-11-20T05:25:18;37.25;;;15.02;;
44764;SDS011;30484;52.382;5.260;2022-11-20T05:27:47;33.45;;;14.88;;
44764;SDS011;30484;52.382;5.260;2022-11-20T05:30:19;34.25;;;15.18;;
44764;SDS011;30484;52.382;5.260;2022-11-20T05:32:48;37.45;;;14.43;;
44764;SDS011;30484;52.382;5.260;2022-11-20T05:35:17;36.88;;;14.07;;
44764;SDS011;30484;52.382;5.260;2022-11-20T05:37:46;36.13;;;14.77;;
44764;SDS011;30484;52.382;5.260;2022-11-20T05:40:14;34.03;;;14.20;;
44764;SDS011;30484;52.382;5.260;2022-11-20T05:42:44;33.50;;;14.75;;
44764;SDS011;30484;52.382;5.260;2022-11-20T05:45:13;33.35;;;14.23;;
44764;SDS011;30484;52.382;5.260;2022-11-20T05:47:45;34.10;;;14.70;;
44764;SDS011;30484;52.382;5.260;2022-11-20T05:50:15;35.45;;;14.80;;
44764;SDS011;30484;52.382;5.260;2022-11-20T05:52:45;38.75;;;15.52;;
44764;SDS011;30484;52.382;5.260;2022-11-20T05:55:14;34.03;;;14.48;;
44764;SDS011;30484;52.382;5.260;2022-11-20T05:57:44;35.20;;;15.65;;
44764;SDS011;30484;52.382;5.260;2022-11-20T06:00:13;35.50;;;15.32;;
44764;SDS011;30484;52.382;5.260;2022-11-20T06:02:43;36.03;;;15.02;;
44764;SDS011;30484;52.382;5.260;2022-11-20T06:05:15;35.53;;;15.27;;
44764;SDS011;30484;52.382;5.260;2022-11-20T06:07:44;35.88;;;15.25;;
44764;SDS011;30484;52.382;5.260;2022-11-20T06:10:13;34.65;;;15.27;;
44764;SDS011;30484;52.382;5.260;2022-11-20T06:12:42;36.97;;;15.77;;
44764;SDS011;30484;52.382;5.260;2022-11-20T06:15:12;34.95;;;14.65;;
44764;SDS011;30484;52.382;5.260;2022-11-20T06:17:42;36.47;;;15.10;;
44764;SDS011;30484;52.382;5.260;2022-11-20T06:20:13;36.97;;;15.20;;
44764;SDS011;30484;52.382;5.260;2022-11-20T06:22:43;37.90;;;15.65;;
44764;SDS011;30484;52.382;5.260;2022-11-20T06:25:15;36.17;;;15.75;;
44764;SDS011;30484;52.382;5.260;2022-11-20T06:27:44;34.72;;;15.18;;
44764;SDS011;30484;52.382;5.260;2022-11-20T06:30:15;39.10;;;15.75;;
44764;SDS011;30484;52.382;5.260;2022-11-20T06:32:44;42.58;;;16.98;;
44764;SDS011;30484;52.382;5.260;2022-11-20T06:35:14;39.95;;;15.80;;
44764;SDS011;30484;52.382;5.260;2022-11-20T06:37:47;42.35;;;16.98;;
44764;SDS011;30484;52.382;5.260;2022-11-20T06:40:15;36.15;;;16.58;;
44764;SDS011;30484;52.382;5.260;2022-11-20T06:42:45;38.60;;;17.52;;
44764;SDS011;30484;52.382;5.260;2022-11-20T06:45:16;34.42;;;16.15;;
44764;SDS011;30484;52.382;5.260;2022-11-20T06:47:45;38.38;;;16.73;;
44764;SDS011;30484;52.382;5.260;2022-11-20T06:50:17;41.30;;;18.25;;
44764;SDS011;30484;52.382;5.260;2022-11-20T06:52:47;40.53;;;17.08;;
44764;SDS011;30484;52.382;5.260;2022-11-20T06:55:17;42.38;;;17.33;;
44764;SDS011;30484;52.382;5.260;2022-11-20T06:57:45;36.47;;;16.90;;
44764;SDS011;30484;52.382;5.260;2022-11-20T07:00:21;38.83;;;16.38;;
44764;SDS011;30484;52.382;5.260;2022-11-20T07:02:51;39.03;;;16.30;;
44764;SDS011;30484;52.382;5.260;2022-11-20T07:05:24;44.72;;;16.35;;
44764;SDS011;30484;52.382;5.260;2022-11-20T07:07:55;36.50;;;15.52;;
44764;SDS011;30484;52.382;5.260;2022-11-20T07:10:24;41.33;;;17.02;;
44764;SDS011;30484;52.382;5.260;2022-11-20T07:12:54;41.63;;;17.52;;
44764;SDS011;30484;52.382;5.260;2022-11-20T07:15:24;42.30;;;17.27;;
44764;SDS011;30484;52.382;5.260;2022-11-20T07:17:53;43.30;;;16.95;;
44764;SDS011;30484;52.382;5.260;2022-11-20T07:20:24;40.08;;;17.33;;
44764;SDS011;30484;52.382;5.260;2022-11-20T07:22:55;37.50;;;16.88;;
44764;SDS011;30484;52.382;5.260;2022-11-20T07:25:26;43.97;;;17.85;;
44764;SDS011;30484;52.382;5.260;2022-11-20T07:27:57;40.83;;;18.20;;
44764;SDS011;30484;52.382;5.260;2022-11-20T07:30:26;48.63;;;18.13;;
44764;SDS011;30484;52.382;5.260;2022-11-20T07:32:56;41.25;;;18.42;;
44764;SDS011;30484;52.382;5.260;2022-11-20T07:35:30;42.17;;;18.58;;
44764;SDS011;30484;52.382;5.260;2022-11-20T07:37:59;44.45;;;19.67;;
44764;SDS011;30484;52.382;5.260;2022-11-20T07:40:28;46.25;;;19.00;;
44764;SDS011;30484;52.382;5.260;2022-11-20T07:42:57;45.65;;;19.05;;
44764;SDS011;30484;52.382;5.260;2022-11-20T07:45:40;50.78;;;20.95;;
44764;SDS011;30484;52.382;5.260;2022-11-20T07:48:36;44.05;;;19.10;;
44764;SDS011;30484;52.382;5.260;2022-11-20T07:51:34;45.75;;;20.25;;
44764;SDS011;30484;52.382;5.260;2022-11-20T07:54:03;46.47;;;20.90;;
44764;SDS011;30484;52.382;5.260;2022-11-20T07:56:47;43.65;;;19.73;;
44764;SDS011;30484;52.382;5.260;2022-11-20T07:59:43;46.03;;;21.40;;
44764;SDS011;30484;52.382;5.260;2022-11-20T08:02:13;48.58;;;20.75;;
44764;SDS011;30484;52.382;5.260;2022-11-20T08:04:50;44.65;;;22.02;;
44764;SDS011;30484;52.382;5.260;2022-11-20T08:14:27;43.22;;;20.90;;
44764;SDS011;30484;52.382;5.260;2022-11-20T08:17:15;51.35;;;22.30;;
44764;SDS011;30484;52.382;5.260;2022-11-20T08:20:01;50.22;;;23.23;;
44764;SDS011;30484;52.382;5.260;2022-11-20T08:22:44;53.03;;;23.17;;
44764;SDS011;30484;52.382;5.260;2022-11-20T08:25:22;48.03;;;22.92;;
44764;SDS011;30484;52.382;5.260;2022-11-20T08:28:20;49.08;;;23.02;;
44764;SDS011;30484;52.382;5.260;2022-11-20T08:30:57;55.92;;;22.50;;
44764;SDS011;30484;52.382;5.260;2022-11-20T08:33:31;49.72;;;23.13;;
44764;SDS011;30484;52.382;5.260;2022-11-20T08:36:07;49.22;;;22.55;;
44764;SDS011;30484;52.382;5.260;2022-11-20T08:38:37;52.33;;;24.98;;
44764;SDS011;30484;52.382;5.260;2022-11-20T08:41:06;51.00;;;23.17;;
44764;SDS011;30484;52.382;5.260;2022-11-20T08:43:57;51.88;;;23.27;;
44764;SDS011;30484;52.382;5.260;2022-11-20T08:46:32;53.67;;;23.50;;
44764;SDS011;30484;52.382;5.260;2022-11-20T08:49:03;52.03;;;23.30;;
44764;SDS011;30484;52.382;5.260;2022-11-20T08:51:34;55.78;;;24.63;;
44764;SDS011;30484;52.382;5.260;2022-11-20T08:54:15;43.10;;;21.70;;
44764;SDS011;30484;52.382;5.260;2022-11-20T08:56:47;48.10;;;23.55;;
44764;SDS011;30484;52.382;5.260;2022-11-20T08:59:23;48.90;;;24.20;;
44764;SDS011;30484;52.382;5.260;2022-11-20T09:02:11;48.72;;;23.77;;
44764;SDS011;30484;52.382;5.260;2022-11-20T09:04:40;48.88;;;22.52;;
44764;SDS011;30484;52.382;5.260;2022-11-20T09:07:09;47.65;;;22.80;;
44764;SDS011;30484;52.382;5.260;2022-11-20T09:09:38;41.95;;;22.45;;
44764;SDS011;30484;52.382;5.260;2022-11-20T09:12:07;48.20;;;22.20;;
44764;SDS011;30484;52.382;5.260;2022-11-20T09:14:37;45.65;;;22.75;;
44764;SDS011;30484;52.382;5.260;2022-11-20T09:17:20;47.35;;;23.10;;
44764;SDS011;30484;52.382;5.260;2022-11-20T09:19:53;46.33;;;23.38;;
44764;SDS011;30484;52.382;5.260;2022-11-20T09:22:22;46.10;;;23.80;;
44764;SDS011;30484;52.382;5.260;2022-11-20T09:24:51;47.00;;;22.77;;
44764;SDS011;30484;52.382;5.260;2022-11-20T09:27:19;48.30;;;23.95;;
44764;SDS011;30484;52.382;5.260;2022-11-20T09:29:52;52.65;;;22.00;;
44764;SDS011;30484;52.382;5.260;2022-11-20T09:32:21;45.22;;;22.92;;
44764;SDS011;30484;52.382;5.260;2022-11-20T09:34:58;47.78;;;22.75;;
44764;SDS011;30484;52.382;5.260;2022-11-20T09:37:27;41.85;;;21.63;;
44764;SDS011;30484;52.382;5.260;2022-11-20T09:39:57;44.28;;;21.17;;
44764;SDS011;30484;52.382;5.260;2022-11-20T09:42:42;48.13;;;23.67;;
44764;SDS011;30484;52.382;5.260;2022-11-20T09:45:53;43.97;;;21.02;;
44764;SDS011;30484;52.382;5.260;2022-11-20T09:49:14;43.13;;;20.63;;
44764;SDS011;30484;52.382;5.260;2022-11-20T09:52:22;40.78;;;20.98;;
44764;SDS011;30484;52.382;5.260;2022-11-20T09:55:28;43.80;;;20.70;;
44764;SDS011;30484;52.382;5.260;2022-11-20T09:58:27;38.58;;;19.40;;
44764;SDS011;30484;52.382;5.260;2022-11-20T10:01:26;36.35;;;18.67;;
44764;SDS011;30484;52.382;5.260;2022-11-20T10:04:22;34.50;;;19.35;;
44764;SDS011;30484;52.382;5.260;2022-11-20T10:07:21;36.83;;;19.48;;
44764;SDS011;30484;52.382;5.260;2022-11-20T10:10:03;41.47;;;20.30;;
44764;SDS011;30484;52.382;5.260;2022-11-20T10:12:40;37.73;;;19.63;;
44764;SDS011;30484;52.382;5.260;2022-11-20T10:15:31;38.05;;;18.90;;
44764;SDS011;30484;52.382;5.260;2022-11-20T10:18:23;36.15;;;18.85;;
44764;SDS011;30484;52.382;5.260;2022-11-20T10:21:08;42.78;;;21.25;;
44764;SDS011;30484;52.382;5.260;2022-11-20T10:27:29;45.65;;;21.10;;
44764;SDS011;30484;52.382;5.260;2022-11-20T10:30:31;46.42;;;19.90;;
44764;SDS011;30484;52.382;5.260;2022-11-20T10:36:00;39.75;;;18.88;;
44764;SDS011;30484;52.382;5.260;2022-11-20T10:38:46;38.00;;;19.50;;
44764;SDS011;30484;52.382;5.260;2022-11-20T10:41:25;37.40;;;20.13;;
44764;SDS011;30484;52.382;5.260;2022-11-20T10:44:03;35.25;;;18.98;;
44764;SDS011;30484;52.382;5.260;2022-11-20T10:46:44;39.10;;;19.77;;
44764;SDS011;30484;52.382;5.260;2022-11-20T10:49:15;35.75;;;19.67;;
44764;SDS011;30484;52.382;5.260;2022-11-20T10:51:54;35.33;;;18.92;;
44764;SDS011;30484;52.382;5.260;2022-11-20T10:54:46;40.20;;;20.52;;
44764;SDS011;30484;52.382;5.260;2022-11-20T10:57:31;36.78;;;19.67;;
44764;SDS011;30484;52.382;5.260;2022-11-20T11:00:21;38.95;;;20.33;;
44764;SDS011;30484;52.382;5.260;2022-11-20T11:02:51;37.63;;;19.67;;
44764;SDS011;30484;52.382;5.260;2022-11-20T11:05:49;41.65;;;20.20;;
44764;SDS011;30484;52.382;5.260;2022-11-20T11:15:38;46.55;;;22.65;;
44764;SDS011;30484;52.382;5.260;2022-11-20T11:18:22;42.33;;;21.17;;
44764;SDS011;30484;52.382;5.260;2022-11-20T11:21:21;39.85;;;20.70;;
44764;SDS011;30484;52.382;5.260;2022-11-20T11:24:21;41.75;;;21.48;;
44764;SDS011;30484;52.382;5.260;2022-11-20T11:27:10;46.85;;;22.08;;
44764;SDS011;30484;52.382;5.260;2022-11-20T11:33:21;45.20;;;21.80;;
44764;SDS011;30484;52.382;5.260;2022-11-20T11:35:54;41.72;;;21.27;;
44764;SDS011;30484;52.382;5.260;2022-11-20T11:38:28;42.10;;;21.33;;
44764;SDS011;30484;52.382;5.260;2022-11-20T11:41:16;44.72;;;21.75;;
44764;SDS011;30484;52.382;5.260;2022-11-20T11:43:55;39.13;;;21.30;;
44764;SDS011;30484;52.382;5.260;2022-11-20T11:46:54;44.78;;;23.00;;
44764;SDS011;30484;52.382;5.260;2022-11-20T11:49:25;51.42;;;23.98;;
44764;SDS011;30484;52.382;5.260;2022-11-20T11:52:02;44.90;;;22.75;;
44764;SDS011;30484;52.382;5.260;2022-11-20T11:54:45;48.70;;;23.45;;
44764;SDS011;30484;52.382;5.260;2022-11-20T11:57:22;48.28;;;24.42;;
44764;SDS011;30484;52.382;5.260;2022-11-20T12:00:06;48.90;;;24.73;;
44764;SDS011;30484;52.382;5.260;2022-11-20T12:03:00;53.35;;;25.17;;
44764;SDS011;30484;52.382;5.260;2022-11-20T12:05:43;51.53;;;24.30;;
44764;SDS011;30484;52.382;5.260;2022-11-20T12:08:26;49.55;;;24.65;;
44764;SDS011;30484;52.382;5.260;2022-11-20T12:11:03;52.38;;;25.38;;
44764;SDS011;30484;52.382;5.260;2022-11-20T12:13:44;51.00;;;26.08;;
44764;SDS011;30484;52.382;5.260;2022-11-20T12:16:22;55.83;;;27.30;;
44764;SDS011;30484;52.382;5.260;2022-11-20T12:18:53;55.42;;;27.17;;
44764;SDS011;30484;52.382;5.260;2022-11-20T12:21:31;54.17;;;26.90;;
44764;SDS011;30484;52.382;5.260;2022-11-20T12:24:24;55.17;;;27.73;;
44764;SDS011;30484;52.382;5.260;2022-11-20T12:38:13;65.60;;;30.52;;
44764;SDS011;30484;52.382;5.260;2022-11-20T12:41:42;64.03;;;28.30;;
44764;SDS011;30484;52.382;5.260;2022-11-20T12:52:12;63.28;;;29.45;;
44764;SDS011;30484;52.382;5.260;2022-11-20T12:55:31;64.85;;;30.90;;
44764;SDS011;30484;52.382;5.260;2022-11-20T12:58:33;60.67;;;28.77;;
44764;SDS011;30484;52.382;5.260;2022-11-20T13:01:28;67.88;;;31.55;;
44764;SDS011;30484;52.382;5.260;2022-11-20T13:04:37;63.35;;;30.05;;
44764;SDS011;30484;52.382;5.260;2022-11-20T13:07:24;68.57;;;32.03;;
44764;SDS011;30484;52.382;5.260;2022-11-20T13:09:56;73.20;;;33.75;;
44764;SDS011;30484;52.382;5.260;2022-11-20T13:12:44;71.10;;;34.50;;
44764;SDS011;30484;52.382;5.260;2022-11-20T13:15:48;72.18;;;33.63;;
44764;SDS011;30484;52.382;5.260;2022-11-20T13:18:52;68.05;;;32.75;;
44764;SDS011;30484;52.382;5.260;2022-11-20T13:21:42;66.60;;;33.63;;
44764;SDS011;30484;52.382;5.260;2022-11-20T13:24:49;79.68;;;37.75;;
44764;SDS011;30484;52.382;5.260;2022-11-20T13:34:59;80.85;;;45.25;;
44764;SDS011;30484;52.382;5.260;2022-11-20T13:38:02;97.05;;;58.08;;
44764;SDS011;30484;52.382;5.260;2022-11-20T13:41:02;75.40;;;38.47;;
44764;SDS011;30484;52.382;5.260;2022-11-20T13:44:04;66.32;;;31.58;;
44764;SDS011;30484;52.382;5.260;2022-11-20T13:50:18;68.50;;;30.92;;
44764;SDS011;30484;52.382;5.260;2022-11-20T13:53:48;59.67;;;30.13;;
44764;SDS011;30484;52.382;5.260;2022-11-20T13:57:13;61.65;;;30.23;;
44764;SDS011;30484;52.382;5.260;2022-11-20T14:00:32;66.47;;;32.58;;
44764;SDS011;30484;52.382;5.260;2022-11-20T14:07:02;64.25;;;31.23;;
44764;SDS011;30484;52.382;5.260;2022-11-20T14:09:53;68.22;;;31.25;;
44764;SDS011;30484;52.382;5.260;2022-11-20T14:12:43;66.38;;;32.92;;
44764;SDS011;30484;52.382;5.260;2022-11-20T14:15:40;63.50;;;30.92;;
44764;SDS011;30484;52.382;5.260;2022-11-20T14:18:12;62.80;;;31.00;;
44764;SDS011;30484;52.382;5.260;2022-11-20T14:21:04;66.82;;;31.42;;
44764;SDS011;30484;52.382;5.260;2022-11-20T14:23:36;64.90;;;31.70;;
44764;SDS011;30484;52.382;5.260;2022-11-20T14:26:07;65.40;;;31.95;;
44764;SDS011;30484;52.382;5.260;2022-11-20T14:28:47;70.05;;;32.58;;
44764;SDS011;30484;52.382;5.260;2022-11-20T14:31:46;73.90;;;34.10;;
44764;SDS011;30484;52.382;5.260;2022-11-20T14:34:21;81.18;;;41.58;;
44764;SDS011;30484;52.382;5.260;2022-11-20T14:37:03;72.20;;;33.80;;
44764;SDS011;30484;52.382;5.260;2022-11-20T14:39:46;67.78;;;34.35;;
44764;SDS011;30484;52.382;5.260;2022-11-20T14:42:34;69.72;;;33.17;;
44764;SDS011;30484;52.382;5.260;2022-11-20T14:45:21;72.13;;;34.65;;
44764;SDS011;30484;52.382;5.260;2022-11-20T14:48:28;100.63;;;61.72;;
44764;SDS011;30484;52.382;5.260;2022-11-20T14:51:30;66.45;;;33.22;;
44764;SDS011;30484;52.382;5.260;2022-11-20T15:20:21;72.05;;;33.42;;
44764;SDS011;30484;52.382;5.260;2022-11-20T15:23:00;75.85;;;33.97;;
44764;SDS011;30484;52.382;5.260;2022-11-20T15:25:30;69.13;;;33.88;;
44764;SDS011;30484;52.382;5.260;2022-11-20T15:28:16;80.30;;;33.78;;
44764;SDS011;30484;52.382;5.260;2022-11-20T15:31:16;73.22;;;32.63;;
44764;SDS011;30484;52.382;5.260;2022-11-20T15:33:53;72.03;;;35.28;;
44764;SDS011;30484;52.382;5.260;2022-11-20T15:36:41;69.90;;;32.53;;
44764;SDS011;30484;52.382;5.260;2022-11-20T15:39:26;65.15;;;32.95;;
44764;SDS011;30484;52.382;5.260;2022-11-20T15:41:59;77.22;;;35.80;;
44764;SDS011;30484;52.382;5.260;2022-11-20T15:44:28;74.40;;;34.38;;
44764;SDS011;30484;52.382;5.260;2022-11-20T15:46:57;79.30;;;36.58;;
44764;SDS011;30484;52.382;5.260;2022-11-20T15:49:25;76.90;;;34.50;;
44764;SDS011;30484;52.382;5.260;2022-11-20T15:51:58;88.40;;;39.95;;
44764;SDS011;30484;52.382;5.260;2022-11-20T15:54:28;93.70;;;40.70;;
44764;SDS011;30484;52.382;5.260;2022-11-20T15:57:03;100.43;;;46.03;;
44764;SDS011;30484;52.382;5.260;2022-11-20T15:59:34;86.53;;;39.55;;
44764;SDS011;30484;52.382;5.260;2022-11-20T16:02:09;97.88;;;44.03;;
44764;SDS011;30484;52.382;5.260;2022-11-20T16:04:50;93.03;;;41.88;;
44764;SDS011;30484;52.382;5.260;2022-11-20T16:33:10;96.55;;;41.63;;
44764;SDS011;30484;52.382;5.260;2022-11-20T16:35:45;97.93;;;39.03;;
44764;SDS011;30484;52.382;5.260;2022-11-20T16:38:44;91.38;;;38.05;;
44764;SDS011;30484;52.382;5.260;2022-11-20T16:41:32;104.10;;;45.10;;
44764;SDS011;30484;52.382;5.260;2022-11-20T16:44:29;121.85;;;52.65;;
44764;SDS011;30484;52.382;5.260;2022-11-20T16:50:46;462.15;;;170.50;;
44764;SDS011;30484;52.382;5.260;2022-11-20T16:53:48;231.83;;;78.73;;
44764;SDS011;30484;52.382;5.260;2022-11-20T16:56:45;171.05;;;65.13;;
44764;SDS011;30484;52.382;5.260;2022-11-20T16:59:30;151.05;;;58.10;;
44764;SDS011;30484;52.382;5.260;2022-11-20T17:02:29;109.28;;;42.60;;
44764;SDS011;30484;52.382;5.260;2022-11-20T17:16:16;109.22;;;42.33;;
44764;SDS011;30484;52.382;5.260;2022-11-20T17:19:01;101.15;;;41.13;;
44764;SDS011;30484;52.382;5.260;2022-11-20T17:21:32;102.68;;;42.53;;
44764;SDS011;30484;52.382;5.260;2022-11-20T17:24:11;120.60;;;51.60;;
44764;SDS011;30484;52.382;5.260;2022-11-20T17:27:09;142.00;;;61.45;;